Terminal Aerodrome Forecast
Issued by NWS Wilmington, OH

Current Version | Previous Version | Text Only | Print | Product List | Glossary Off
Versions: 1 2 3 4 5 6 7 8 9 10 11 12 13 14 15 16 17 18 19 20 21 22

000
FTUS41 KILN 240500 RRA
TAFCMH
TAF
KCMH 240547Z 2406/2506 05007KT P6SM OVC025
      TEMPO 2406/2410 OVC013
     FM241000 05008KT P6SM OVC025
     FM241400 06008KT P6SM BKN035
     FM250000 11007KT P6SM VCSH OVC050=

USA.gov is the U.S. government's official web portal to all federal, state and local government web resources and services.